createdAt,value
2022-10-28T00:01:24.674Z,6.07
2022-10-28T00:03:54.641Z,7.87
2022-10-28T00:06:24.626Z,5.77
2022-10-28T00:08:52.547Z,6.20
2022-10-28T00:11:23.210Z,5.07
2022-10-28T00:13:53.979Z,8.70
2022-10-28T00:16:26.507Z,7.50
2022-10-28T00:18:55.124Z,5.10
2022-10-28T00:21:25.361Z,6.93
2022-10-28T00:23:53.508Z,6.87
2022-10-28T00:26:23.081Z,8.43
2022-10-28T00:28:53.255Z,8.43
2022-10-28T00:31:24.654Z,6.57
2022-10-28T00:33:53.285Z,6.70
2022-10-28T00:36:23.464Z,9.37
2022-10-28T00:38:52.783Z,7.07
2022-10-28T00:41:23.106Z,5.80
2022-10-28T00:43:53.159Z,7.70
2022-10-28T00:46:29.568Z,8.67
2022-10-28T00:49:02.799Z,6.73
2022-10-28T00:51:34.627Z,7.37
2022-10-28T00:54:04.207Z,8.20
2022-10-28T00:56:35.387Z,7.60
2022-10-28T00:59:08.461Z,9.33
2022-10-28T01:01:37.788Z,9.40
2022-10-28T01:04:05.985Z,8.23
2022-10-28T01:06:33.916Z,7.90
2022-10-28T01:09:01.824Z,7.33
2022-10-28T01:11:43.371Z,5.80
2022-10-28T01:14:21.644Z,11.27
2022-10-28T01:17:04.770Z,8.60
2022-10-28T01:20:20.336Z,7.57
2022-10-28T01:22:56.710Z,7.17
2022-10-28T01:25:58.153Z,6.37
2022-10-28T01:29:02.962Z,6.50
2022-10-28T01:31:41.402Z,7.20
2022-10-28T01:34:19.854Z,9.83
2022-10-28T01:36:59.012Z,7.60
2022-10-28T01:39:33.815Z,8.23
2022-10-28T01:42:16.222Z,7.63
2022-10-28T01:44:50.384Z,6.70
2022-10-28T01:47:24.070Z,6.50
2022-10-28T01:49:57.409Z,7.20
2022-10-28T01:52:28.649Z,7.50
2022-10-28T01:55:05.507Z,9.63
2022-10-28T01:57:37.181Z,6.73
2022-10-28T02:00:06.879Z,8.00
2022-10-28T02:02:38.513Z,6.47
2022-10-28T02:05:28.388Z,5.30
2022-10-28T02:08:01.784Z,8.70
2022-10-28T02:10:38.706Z,9.07
2022-10-28T02:13:13.109Z,10.53
2022-10-28T02:15:47.144Z,6.53
2022-10-28T02:18:28.420Z,6.30
2022-10-28T02:21:03.514Z,9.93
2022-10-28T02:23:43.500Z,5.63
2022-10-28T02:26:18.936Z,7.97
2022-10-28T02:28:51.715Z,5.93
2022-10-28T02:31:24.788Z,6.40
2022-10-28T02:33:58.285Z,10.33
2022-10-28T02:36:29.830Z,6.30
2022-10-28T02:39:00.685Z,6.80
2022-10-28T02:41:34.699Z,9.77
2022-10-28T02:44:10.139Z,7.33
2022-10-28T02:46:40.963Z,6.63
2022-10-28T02:49:13.656Z,7.57
2022-10-28T02:51:45.949Z,6.13
2022-10-28T02:54:17.169Z,7.40
2022-10-28T02:56:52.697Z,8.37
2022-10-28T02:59:20.810Z,10.50
2022-10-28T03:01:48.848Z,9.27
2022-10-28T03:04:18.579Z,8.40
2022-10-28T03:06:46.562Z,7.47
2022-10-28T03:09:14.557Z,6.27
2022-10-28T03:11:42.604Z,8.90
2022-10-28T03:14:13.172Z,5.47
2022-10-28T03:16:43.556Z,5.67
2022-10-28T03:19:11.493Z,7.40
2022-10-28T03:21:40.727Z,9.83
2022-10-28T03:24:09.060Z,7.43
2022-10-28T03:26:37.073Z,6.17
2022-10-28T03:29:05.119Z,8.33
2022-10-28T03:31:33.175Z,8.00
2022-10-28T03:34:01.059Z,9.67
2022-10-28T03:36:29.053Z,7.47
2022-10-28T03:38:58.532Z,5.87
2022-10-28T03:41:26.463Z,9.73
2022-10-28T03:43:54.407Z,10.60
2022-10-28T03:46:22.585Z,10.33
2022-10-28T03:48:50.494Z,10.20
2022-10-28T03:51:18.794Z,8.70
2022-10-28T03:53:46.860Z,6.27
2022-10-28T03:56:16.222Z,8.47
2022-10-28T03:58:44.196Z,8.43
2022-10-28T04:01:12.412Z,9.40
2022-10-28T04:03:40.424Z,8.13
2022-10-28T04:06:10.092Z,10.17
2022-10-28T04:08:38.264Z,9.53
2022-10-28T04:11:06.461Z,9.43
2022-10-28T04:13:36.052Z,7.90
2022-10-28T04:16:04.355Z,10.07
2022-10-28T04:18:32.320Z,7.97
2022-10-28T04:21:00.280Z,6.90
2022-10-28T04:23:29.395Z,10.57
2022-10-28T04:25:57.435Z,8.50
2022-10-28T04:28:25.437Z,9.70
2022-10-28T04:30:54.871Z,8.17
2022-10-28T04:33:22.809Z,8.50
2022-10-28T04:35:50.929Z,6.07
2022-10-28T04:38:18.978Z,8.00
2022-10-28T04:40:49.115Z,6.83
2022-10-28T04:43:17.033Z,8.83
2022-10-28T04:45:47.000Z,6.70
2022-10-28T04:48:16.303Z,9.20
2022-10-28T04:50:44.863Z,8.67
2022-10-28T04:53:23.073Z,11.00
2022-10-28T04:55:50.899Z,6.87
2022-10-28T04:58:18.767Z,10.03
2022-10-28T05:00:46.803Z,8.10
2022-10-28T05:03:14.706Z,8.20
2022-10-28T05:05:42.863Z,6.93
2022-10-28T05:08:10.785Z,8.37
2022-10-28T05:10:40.070Z,9.47
2022-10-28T05:13:07.947Z,7.00
2022-10-28T05:15:35.829Z,10.07
2022-10-28T05:18:03.823Z,10.97
2022-10-28T05:20:31.713Z,10.43
2022-10-28T05:22:59.793Z,9.20
2022-10-28T05:25:27.946Z,7.93
2022-10-28T05:27:59.510Z,10.43
2022-10-28T05:30:27.969Z,10.90
2022-10-28T05:33:01.321Z,11.00
2022-10-28T05:35:29.579Z,7.57
2022-10-28T05:37:57.961Z,9.70
2022-10-28T05:40:26.444Z,11.33
2022-10-28T05:42:54.574Z,8.40
2022-10-28T05:45:24.048Z,9.97
2022-10-28T05:47:52.773Z,7.63
2022-10-28T05:50:21.810Z,8.40
2022-10-28T05:52:50.848Z,9.50
2022-10-28T05:55:20.618Z,7.90
2022-10-28T05:57:48.928Z,11.00
2022-10-28T06:00:18.595Z,8.57
2022-10-28T06:02:48.149Z,9.27
2022-10-28T06:05:16.463Z,11.83
2022-10-28T06:07:44.394Z,12.93
2022-10-28T06:10:13.116Z,9.43
2022-10-28T06:12:39.555Z,7.60
2022-10-28T06:15:08.502Z,10.97
2022-10-28T06:17:36.403Z,8.47
2022-10-28T06:20:06.800Z,9.43
2022-10-28T06:22:35.026Z,10.47
2022-10-28T06:25:06.237Z,10.13
2022-10-28T06:27:34.405Z,9.23
2022-10-28T06:30:02.586Z,11.73
2022-10-28T06:32:31.169Z,13.03
2022-10-28T06:34:59.535Z,10.70
2022-10-28T06:37:28.944Z,13.63
2022-10-28T06:39:59.088Z,16.83
2022-10-28T06:42:27.152Z,12.37
2022-10-28T06:44:56.560Z,9.87
2022-10-28T06:47:26.949Z,11.83
2022-10-28T06:49:55.235Z,12.23
2022-10-28T06:52:23.143Z,14.63
2022-10-28T06:54:52.515Z,14.57
2022-10-28T06:57:20.695Z,10.90
2022-10-28T06:59:49.981Z,12.30
2022-10-28T07:02:18.057Z,14.87
2022-10-28T07:04:46.766Z,12.43
2022-10-28T07:07:15.156Z,13.00
2022-10-28T07:09:45.067Z,12.07
2022-10-28T07:12:14.891Z,13.20
2022-10-28T07:14:43.661Z,14.13
2022-10-28T07:17:11.767Z,13.17
2022-10-28T07:19:40.204Z,8.27
2022-10-28T07:22:08.086Z,10.50
2022-10-28T07:24:36.055Z,10.47
2022-10-28T07:27:04.127Z,10.33
2022-10-28T07:29:33.461Z,10.60
2022-10-28T07:32:01.357Z,9.67
2022-10-28T07:34:29.319Z,11.80
2022-10-28T07:36:57.733Z,11.30
2022-10-28T07:39:26.029Z,13.97
2022-10-28T07:41:54.105Z,12.07
2022-10-28T07:44:22.175Z,11.53
2022-10-28T07:46:54.313Z,12.03
2022-10-28T07:49:25.276Z,11.43
2022-10-28T07:51:53.351Z,12.93
2022-10-28T07:54:21.289Z,15.43
2022-10-28T07:56:49.270Z,11.67
2022-10-28T07:59:17.352Z,11.07
2022-10-28T08:01:45.479Z,13.50
2022-10-28T08:04:14.952Z,13.50
2022-10-28T08:06:44.452Z,12.13
2022-10-28T08:09:12.396Z,12.23
2022-10-28T08:11:40.334Z,10.17
2022-10-28T08:14:08.349Z,11.90
2022-10-28T08:16:36.295Z,11.67
2022-10-28T08:19:07.624Z,11.77
2022-10-28T08:21:37.433Z,11.07
2022-10-28T08:24:05.618Z,12.53
2022-10-28T08:26:33.570Z,11.13
2022-10-28T08:29:02.174Z,14.00
2022-10-28T08:31:30.183Z,10.87
2022-10-28T08:33:58.091Z,28.57
2022-10-28T08:36:26.091Z,18.47
2022-10-28T08:38:55.902Z,42.53
2022-10-28T08:41:32.581Z,42.17
2022-10-28T08:44:21.527Z,32.17
2022-10-28T08:47:02.621Z,19.03
2022-10-28T08:49:35.011Z,37.57
2022-10-28T08:52:09.509Z,17.57
2022-10-28T08:54:47.338Z,25.23
2022-10-28T08:57:19.780Z,16.20
2022-10-28T08:59:52.121Z,22.60
2022-10-28T09:02:23.306Z,15.53
2022-10-28T09:04:58.131Z,11.87
2022-10-28T09:07:26.605Z,12.50
2022-10-28T09:09:59.857Z,30.20
2022-10-28T09:12:39.614Z,15.17
2022-10-28T09:15:24.430Z,16.33
2022-10-28T09:17:55.378Z,20.47
2022-10-28T09:20:34.185Z,10.53
2022-10-28T09:23:10.649Z,17.30
2022-10-28T09:25:49.015Z,24.40
2022-10-28T09:28:31.329Z,15.13
2022-10-28T09:31:04.559Z,11.50
2022-10-28T09:33:55.837Z,10.45
2022-10-28T09:36:30.596Z,11.23
2022-10-28T09:39:00.926Z,11.00
2022-10-28T09:41:34.961Z,14.10
2022-10-28T09:44:12.694Z,10.77
2022-10-28T09:46:41.911Z,16.70
2022-10-28T09:49:15.722Z,10.00
2022-10-28T09:51:49.731Z,7.97
2022-10-28T09:54:18.645Z,13.40
2022-10-28T09:56:48.053Z,11.05
2022-10-28T09:59:17.561Z,10.77
2022-10-28T10:01:47.870Z,9.02
2022-10-28T10:04:21.461Z,8.32
2022-10-28T10:06:53.302Z,10.65
2022-10-28T10:09:24.960Z,9.48
2022-10-28T10:11:57.135Z,9.32
2022-10-28T10:14:30.046Z,9.32
2022-10-28T10:17:01.445Z,11.50
2022-10-28T10:19:29.518Z,11.45
2022-10-28T10:21:58.732Z,9.52
2022-10-28T10:24:32.066Z,17.83
2022-10-28T10:27:05.159Z,12.02
2022-10-28T10:29:33.833Z,7.82
2022-10-28T10:32:19.059Z,10.43
2022-10-28T10:34:55.415Z,10.80
2022-10-28T10:37:24.944Z,9.80
2022-10-28T10:40:06.635Z,9.38
2022-10-28T10:42:42.695Z,10.23
2022-10-28T10:45:25.913Z,11.07
2022-10-28T10:48:15.031Z,11.10
2022-10-28T10:50:45.342Z,10.65
2022-10-28T10:53:24.038Z,12.48
2022-10-28T10:55:55.460Z,11.15
2022-10-28T10:58:27.785Z,16.85
2022-10-28T11:00:58.327Z,11.52
2022-10-28T11:03:29.532Z,17.35
2022-10-28T11:06:22.008Z,13.68
2022-10-28T11:08:47.217Z,11.95
2022-10-28T11:11:20.029Z,11.73
2022-10-28T11:14:03.288Z,10.70
2022-10-28T11:16:31.553Z,11.68
2022-10-28T11:18:59.579Z,11.48
2022-10-28T11:21:48.070Z,20.00
2022-10-28T11:24:31.498Z,9.43
2022-10-28T11:27:10.430Z,17.10
2022-10-28T11:29:40.237Z,16.23
2022-10-28T11:33:01.328Z,11.23
2022-10-28T11:35:43.616Z,10.50
2022-10-28T11:38:24.569Z,13.82
2022-10-28T11:41:07.794Z,13.88
2022-10-28T11:43:48.633Z,13.88
2022-10-28T11:46:27.961Z,14.10
2022-10-28T11:49:10.867Z,9.88
2022-10-28T11:51:47.107Z,12.10
2022-10-28T11:54:29.527Z,13.38
2022-10-28T11:57:04.349Z,11.98
2022-10-28T12:00:02.989Z,17.65
2022-10-28T12:02:57.159Z,35.38
2022-10-28T12:05:32.012Z,11.82
2022-10-28T12:08:22.858Z,15.88
2022-10-28T12:11:08.668Z,13.75
2022-10-28T12:13:45.899Z,21.55
2022-10-28T12:16:19.652Z,10.02
2022-10-28T12:18:55.959Z,13.93
2022-10-28T12:21:32.758Z,16.27
2022-10-28T12:24:01.604Z,11.50
2022-10-28T12:26:38.958Z,13.45
2022-10-28T12:29:15.067Z,13.73
2022-10-28T12:31:47.542Z,11.60
2022-10-28T12:34:24.588Z,17.45
2022-10-28T12:36:58.383Z,12.85
2022-10-28T12:39:32.446Z,13.23
2022-10-28T12:42:06.257Z,11.48
2022-10-28T12:44:37.873Z,9.43
2022-10-28T12:47:18.952Z,11.45
2022-10-28T12:50:01.505Z,16.13
2022-10-28T12:52:39.596Z,12.88
2022-10-28T12:55:31.015Z,9.93
2022-10-28T12:58:04.888Z,11.05
2022-10-28T13:00:38.296Z,15.90
2022-10-28T13:03:08.823Z,13.57
2022-10-28T13:05:45.246Z,10.13
2022-10-28T13:08:39.470Z,13.60
2022-10-28T13:11:45.315Z,9.73
2022-10-28T13:14:29.991Z,13.10
2022-10-28T13:17:19.756Z,14.55
2022-10-28T13:20:22.556Z,11.48
2022-10-28T13:23:11.937Z,13.27
2022-10-28T13:25:54.877Z,14.45
2022-10-28T13:28:30.662Z,13.02
2022-10-28T13:31:00.821Z,11.63
2022-10-28T13:33:30.869Z,13.80
2022-10-28T13:36:11.829Z,8.60
2022-10-28T13:38:41.725Z,13.98
2022-10-28T13:41:28.363Z,15.32
2022-10-28T13:44:27.228Z,16.98
2022-10-28T13:47:26.483Z,11.30
2022-10-28T13:50:15.628Z,13.20
2022-10-28T13:52:45.541Z,18.85
2022-10-28T13:55:25.090Z,14.38
2022-10-28T13:58:00.253Z,12.80
2022-10-28T14:00:38.911Z,17.70
2022-10-28T14:03:17.852Z,16.02
2022-10-28T14:05:55.209Z,16.85
2022-10-28T14:08:29.476Z,15.40
2022-10-28T14:11:05.326Z,13.95
2022-10-28T14:13:36.935Z,12.90
2022-10-28T14:16:22.910Z,12.35
2022-10-28T14:19:01.439Z,13.95
2022-10-28T14:21:45.912Z,12.50
2022-10-28T14:24:30.766Z,15.18
2022-10-28T14:27:30.823Z,18.88
2022-10-28T14:30:24.211Z,11.52
2022-10-28T14:33:20.613Z,14.68
2022-10-28T14:35:53.169Z,15.75
2022-10-28T14:38:50.836Z,15.20
2022-10-28T14:41:36.696Z,14.15
2022-10-28T14:44:25.126Z,10.07
2022-10-28T14:47:08.300Z,12.55
2022-10-28T14:49:38.031Z,9.70
2022-10-28T14:52:08.996Z,15.50
2022-10-28T14:54:44.845Z,15.20
2022-10-28T14:57:12.874Z,15.57
2022-10-28T14:59:45.502Z,15.77
2022-10-28T15:02:17.443Z,20.13
2022-10-28T15:04:47.575Z,17.80
2022-10-28T15:07:17.590Z,17.67
2022-10-28T15:09:48.837Z,12.38
2022-10-28T15:12:19.074Z,17.92
2022-10-28T15:14:50.881Z,22.02
2022-10-28T15:17:20.678Z,17.85
2022-10-28T15:19:50.432Z,13.95
2022-10-28T15:22:21.705Z,18.15
2022-10-28T15:25:00.784Z,13.02
2022-10-28T15:27:31.830Z,15.65
2022-10-28T15:30:01.398Z,18.05
2022-10-28T15:32:32.343Z,16.88
2022-10-28T15:35:01.028Z,12.30
2022-10-28T15:37:31.379Z,12.13
2022-10-28T15:40:20.509Z,16.38
2022-10-28T15:42:53.618Z,13.65
2022-10-28T15:45:26.073Z,14.55
2022-10-28T15:47:55.272Z,15.05
2022-10-28T15:50:32.539Z,21.33
2022-10-28T15:53:23.445Z,12.13
2022-10-28T15:56:10.677Z,17.25
2022-10-28T15:58:40.685Z,16.10
2022-10-28T16:01:28.987Z,12.10
2022-10-28T16:03:57.312Z,15.80
2022-10-28T16:06:31.030Z,14.93
2022-10-28T16:09:05.550Z,14.77
2022-10-28T16:11:36.551Z,16.05
2022-10-28T16:14:14.881Z,18.42
2022-10-28T16:16:45.042Z,15.88
2022-10-28T16:19:26.936Z,16.45
2022-10-28T16:21:54.951Z,16.65
2022-10-28T16:24:22.836Z,15.32
2022-10-28T16:26:50.927Z,13.77
2022-10-28T16:29:18.923Z,16.23
2022-10-28T16:31:52.199Z,13.70
2022-10-28T16:34:20.360Z,15.27
2022-10-28T16:36:48.274Z,16.42
2022-10-28T16:39:16.369Z,13.25
2022-10-28T16:41:44.350Z,18.88
2022-10-28T16:44:17.920Z,16.13
2022-10-28T16:46:45.852Z,15.15
2022-10-28T16:49:15.216Z,16.75
2022-10-28T16:51:45.026Z,16.52
2022-10-28T16:54:13.040Z,15.80
2022-10-28T16:56:40.879Z,15.80
2022-10-28T16:59:08.869Z,13.98
2022-10-28T17:01:36.955Z,17.38
2022-10-28T17:04:05.245Z,18.05
2022-10-28T17:06:39.121Z,15.85
2022-10-28T17:09:07.474Z,18.27
2022-10-28T17:11:35.469Z,17.00
2022-10-28T17:14:04.047Z,16.90
2022-10-28T17:16:31.966Z,14.43
2022-10-28T17:19:00.075Z,17.45
2022-10-28T17:21:27.966Z,17.45
2022-10-28T17:23:57.224Z,20.48
2022-10-28T17:26:25.067Z,20.98
2022-10-28T17:28:53.895Z,17.30
2022-10-28T17:31:24.878Z,14.77
2022-10-28T17:33:55.187Z,16.83
2022-10-28T17:36:24.237Z,17.52
2022-10-28T17:38:52.101Z,14.23
2022-10-28T17:41:21.726Z,16.63
2022-10-28T17:43:52.958Z,16.05
2022-10-28T17:46:21.517Z,16.33
2022-10-28T17:48:49.867Z,17.38
2022-10-28T17:51:20.187Z,16.17
2022-10-28T17:53:48.368Z,14.82
2022-10-28T17:56:16.398Z,18.85
2022-10-28T17:58:45.684Z,13.43
2022-10-28T18:01:13.885Z,16.35
2022-10-28T18:03:41.943Z,12.68
2022-10-28T18:06:13.450Z,17.02
2022-10-28T18:08:43.972Z,16.73
2022-10-28T18:11:14.431Z,12.10
2022-10-28T18:13:46.094Z,14.93
2022-10-28T18:16:15.640Z,15.50
2022-10-28T18:18:44.058Z,12.68
2022-10-28T18:21:15.745Z,14.02
2022-10-28T18:23:43.675Z,14.70
2022-10-28T18:26:13.585Z,16.15
2022-10-28T18:28:43.508Z,19.75
2022-10-28T18:31:15.198Z,18.60
2022-10-28T18:33:45.285Z,18.42
2022-10-28T18:36:15.215Z,17.48
2022-10-28T18:38:43.321Z,11.70
2022-10-28T18:41:12.456Z,13.15
2022-10-28T18:43:40.598Z,13.32
2022-10-28T18:46:09.378Z,12.80
2022-10-28T18:48:38.717Z,16.92
2022-10-28T18:51:09.523Z,11.85
2022-10-28T18:53:38.587Z,11.85
2022-10-28T18:56:07.547Z,13.90
2022-10-28T18:58:35.963Z,14.52
2022-10-28T19:01:09.050Z,12.93
2022-10-28T19:03:39.298Z,14.48
2022-10-28T19:06:09.475Z,12.20
2022-10-28T19:08:37.743Z,14.43
2022-10-28T19:11:06.887Z,16.27
2022-10-28T19:13:36.688Z,14.55
2022-10-28T19:16:05.568Z,13.55
2022-10-28T19:18:35.652Z,17.25
2022-10-28T19:21:07.676Z,13.95
2022-10-28T19:23:35.831Z,16.38
2022-10-28T19:26:04.886Z,14.05
2022-10-28T19:28:39.476Z,18.08
2022-10-28T19:31:09.838Z,14.30
2022-10-28T19:33:39.362Z,18.35
2022-10-28T19:36:11.735Z,16.48
2022-10-28T19:38:39.935Z,16.98
2022-10-28T19:41:10.197Z,20.33
2022-10-28T19:43:38.428Z,15.68
2022-10-28T19:46:09.841Z,19.13
2022-10-28T19:48:38.431Z,12.60
2022-10-28T19:51:06.951Z,16.30
2022-10-28T19:53:38.874Z,16.30
2022-10-28T19:56:07.275Z,22.00
2022-10-28T19:58:36.492Z,20.67
2022-10-28T20:01:07.185Z,21.90
2022-10-28T20:03:36.889Z,14.32
2022-10-28T20:06:08.514Z,17.65
2022-10-28T20:08:39.288Z,23.55
2022-10-28T20:11:08.860Z,19.00
2022-10-28T20:13:37.754Z,19.77
2022-10-28T20:16:08.107Z,15.55
2022-10-28T20:18:36.010Z,18.33
2022-10-28T20:21:05.555Z,18.23
2022-10-28T20:23:35.747Z,18.33
2022-10-28T20:26:05.685Z,15.48
2022-10-28T20:28:34.008Z,14.02
2022-10-28T20:31:03.472Z,18.70
2022-10-28T20:33:32.069Z,17.77
2022-10-28T20:36:00.360Z,14.77
2022-10-28T20:38:29.202Z,19.42
2022-10-28T20:40:58.650Z,17.38
2022-10-28T20:43:29.977Z,18.17
2022-10-28T20:45:59.790Z,16.95
2022-10-28T20:48:28.833Z,17.98
2022-10-28T20:50:58.661Z,15.63
2022-10-28T20:53:28.752Z,14.85
2022-10-28T20:55:58.483Z,18.15
2022-10-28T20:58:29.894Z,15.15
2022-10-28T21:01:03.768Z,16.10
2022-10-28T21:03:31.918Z,24.05
2022-10-28T21:06:00.228Z,19.60
2022-10-28T21:08:28.221Z,16.30
2022-10-28T21:10:56.289Z,14.82
2022-10-28T21:13:24.130Z,20.55
2022-10-28T21:15:56.601Z,17.40
2022-10-28T21:18:26.615Z,17.60
2022-10-28T21:20:57.548Z,17.38
2022-10-28T21:23:26.312Z,15.63
2022-10-28T21:25:54.745Z,18.70
2022-10-28T21:28:23.105Z,18.25
2022-10-28T21:30:51.366Z,16.83
2022-10-28T21:33:20.527Z,18.35
2022-10-28T21:35:55.947Z,17.27
2022-10-28T21:38:23.850Z,19.95
2022-10-28T21:40:59.859Z,17.95
2022-10-28T21:43:29.467Z,16.83
2022-10-28T21:45:57.642Z,17.92
2022-10-28T21:48:28.092Z,18.15
2022-10-28T21:50:57.428Z,19.88
2022-10-28T21:53:25.769Z,21.27
2022-10-28T21:55:55.635Z,16.90
2022-10-28T21:58:23.613Z,25.05
2022-10-28T22:00:51.758Z,21.40
2022-10-28T22:03:19.904Z,17.27
2022-10-28T22:05:52.515Z,18.00
2022-10-28T22:08:20.622Z,15.80
2022-10-28T22:10:48.521Z,20.05
2022-10-28T22:13:16.399Z,20.85
2022-10-28T22:15:44.309Z,21.77
2022-10-28T22:18:12.199Z,23.63
2022-10-28T22:20:40.148Z,19.15
2022-10-28T22:23:09.547Z,16.30
2022-10-28T22:25:37.459Z,21.67
2022-10-28T22:28:05.889Z,17.95
2022-10-28T22:30:33.972Z,19.53
2022-10-28T22:33:01.891Z,17.88
2022-10-28T22:35:29.913Z,18.87
2022-10-28T22:37:58.543Z,19.63
2022-10-28T22:40:29.433Z,22.85
2022-10-28T22:42:57.258Z,18.38
2022-10-28T22:45:25.120Z,19.90
2022-10-28T22:47:53.388Z,20.20
2022-10-28T22:50:21.737Z,17.25
2022-10-28T22:52:49.695Z,14.75
2022-10-28T22:55:17.685Z,16.92
2022-10-28T22:57:47.086Z,21.33
2022-10-28T23:00:15.769Z,17.55
2022-10-28T23:02:43.809Z,12.23
2022-10-28T23:05:11.895Z,19.13
2022-10-28T23:07:39.965Z,18.65
2022-10-28T23:10:08.750Z,18.77
2022-10-28T23:12:36.649Z,22.40
2022-10-28T23:15:06.944Z,21.87
2022-10-28T23:17:34.846Z,19.00
2022-10-28T23:20:02.768Z,14.63
2022-10-28T23:22:30.828Z,18.27
2022-10-28T23:24:58.656Z,19.77
2022-10-28T23:27:26.500Z,20.95
2022-10-28T23:29:54.688Z,17.13
2022-10-28T23:32:23.903Z,17.85
2022-10-28T23:34:51.734Z,20.07
2022-10-28T23:37:19.786Z,17.87
2022-10-28T23:39:47.593Z,16.20
2022-10-28T23:42:15.476Z,16.07
2022-10-28T23:44:43.444Z,18.63
2022-10-28T23:47:11.296Z,17.23
2022-10-28T23:49:40.718Z,19.90
2022-10-28T23:52:08.691Z,14.77
2022-10-28T23:54:37.246Z,15.43
2022-10-28T23:57:05.187Z,12.90
2022-10-28T23:59:33.160Z,17.20
